Time;durP1;ratioP1;P1;durP2;ratioP2;P2;SDS_P1;SDS_P2;PMS_P1;PMS_P2;Temp;Humidity;BMP_temperature;BMP_pressure;BME280_temperature;BME280_humidity;BME280_pressure;Samples;Min_cycle;Max_cycle;Signal;HPM_P1;HPM_P2
2022/07/20 05:02:02;;;;;;;9.57;4.40;;;21.60;74.00;;;;;;5699082;23;20226;-70
2022/07/20 05:04:28;;;;;;;7.47;4.28;;;21.70;73.40;;;;;;4905777;29;20036;-70
2022/07/20 05:06:54;;;;;;;9.20;4.60;;;21.80;73.10;;;;;;4907447;29;20036;-70
2022/07/20 05:09:19;;;;;;;10.27;4.32;;;22.00;73.40;;;;;;4906587;29;20035;-70
2022/07/20 05:11:45;;;;;;;11.18;4.88;;;22.00;73.00;;;;;;4906624;29;20036;-70
2022/07/20 05:14:11;;;;;;;9.15;4.80;;;22.10;73.20;;;;;;4906306;29;20036;-71
2022/07/20 05:16:38;;;;;;;10.85;4.68;;;22.10;73.00;;;;;;4907040;29;20138;-70
2022/07/20 05:19:04;;;;;;;8.95;4.80;;;22.20;72.70;;;;;;4907422;29;20039;-71
2022/07/20 05:21:29;;;;;;;8.30;4.15;;;22.30;72.60;;;;;;4893213;29;20035;-70
2022/07/20 05:23:55;;;;;;;9.43;4.22;;;22.20;72.70;;;;;;4926246;29;20036;-69
2022/07/20 05:26:21;;;;;;;7.05;4.40;;;22.30;72.70;;;;;;4924404;29;20042;-70
2022/07/20 05:28:47;;;;;;;12.40;4.45;;;22.30;72.60;;;;;;4909075;29;20028;-70
2022/07/20 05:31:14;;;;;;;7.00;4.55;;;22.40;72.40;;;;;;4923505;29;20050;-70
2022/07/20 05:33:41;;;;;;;8.55;4.50;;;22.40;72.40;;;;;;4925772;29;20230;-70
2022/07/20 05:36:08;;;;;;;8.85;4.28;;;22.40;72.30;;;;;;4925498;29;20044;-70
2022/07/20 05:38:33;;;;;;;8.48;4.20;;;22.40;72.00;;;;;;4925217;29;20096;-70
2022/07/20 05:40:59;;;;;;;8.18;4.32;;;22.40;71.80;;;;;;4926054;29;20040;-69
2022/07/20 05:43:25;;;;;;;9.88;4.40;;;22.50;71.50;;;;;;4925221;29;20036;-75
2022/07/20 05:45:51;;;;;;;7.03;3.78;;;22.60;71.50;;;;;;4915373;29;20032;-70
2022/07/20 05:48:17;;;;;;;9.75;4.32;;;22.80;71.20;;;;;;4924486;29;20271;-71
2022/07/20 05:50:44;;;;;;;8.63;5.10;;;23.00;71.00;;;;;;4925789;29;20055;-70
2022/07/20 05:53:13;;;;;;;10.75;4.35;;;23.10;70.80;;;;;;4926024;29;20028;-75
2022/07/20 05:55:40;;;;;;;9.15;4.18;;;23.10;70.70;;;;;;4925474;29;20028;-70
2022/07/20 05:58:07;;;;;;;11.98;4.80;;;23.30;70.30;;;;;;4925115;29;20238;-71
2022/07/20 06:00:34;;;;;;;8.77;4.50;;;23.40;69.80;;;;;;4924795;29;20040;-72
2022/07/20 06:03:01;;;;;;;11.68;5.07;;;23.60;69.40;;;;;;4925007;29;20115;-71
2022/07/20 06:05:27;;;;;;;7.80;4.45;;;23.70;69.20;;;;;;4925395;29;20036;-69
2022/07/20 06:08:02;;;;;;;10.07;4.65;;;23.70;68.80;;;;;;4925105;29;20032;-69
2022/07/20 06:10:29;;;;;;;7.15;4.07;;;23.90;68.90;;;;;;4925095;29;20121;-70
2022/07/20 06:12:56;;;;;;;8.15;4.28;;;23.90;68.90;;;;;;4925575;29;20043;-69
2022/07/20 06:15:24;;;;;;;9.68;3.97;;;23.90;68.80;;;;;;4924278;29;20062;-70
2022/07/20 06:17:50;;;;;;;;;;;24.00;68.40;;;;;;4925868;29;20036;-69
2022/07/20 06:20:16;;;;;;;12.45;4.43;;;24.10;68.10;;;;;;4924817;29;20133;-70
2022/07/20 06:22:43;;;;;;;8.43;4.00;;;24.20;67.70;;;;;;4927238;29;20036;-70
2022/07/20 06:25:11;;;;;;;8.10;4.15;;;24.40;67.30;;;;;;4929334;29;20040;-70
2022/07/20 06:27:37;;;;;;;8.65;4.72;;;24.50;67.70;;;;;;4928740;29;20063;-70
2022/07/20 06:30:04;;;;;;;11.50;4.88;;;24.60;66.60;;;;;;4928317;29;20318;-71
2022/07/20 06:32:30;;;;;;;9.18;5.57;;;24.70;66.10;;;;;;4928299;29;20381;-70
2022/07/20 06:34:56;;;;;;;8.38;5.85;;;24.70;66.30;;;;;;4927790;29;20059;-70
2022/07/20 06:37:22;;;;;;;10.38;5.40;;;24.70;66.50;;;;;;4928683;29;20031;-70
2022/07/20 06:39:48;;;;;;;11.40;5.57;;;24.90;66.40;;;;;;4927518;29;20035;-69
2022/07/20 06:42:15;;;;;;;12.80;5.93;;;25.00;65.90;;;;;;4926473;29;20210;-70
2022/07/20 06:44:41;;;;;;;11.88;5.80;;;25.10;65.90;;;;;;4923926;29;20096;-72
2022/07/20 06:47:07;;;;;;;9.70;5.88;;;25.20;65.60;;;;;;4927128;29;20184;-69
2022/07/20 06:49:33;;;;;;;10.85;5.03;;;25.30;65.50;;;;;;4926218;29;20081;-70
2022/07/20 06:51:59;;;;;;;8.93;5.15;;;25.40;65.30;;;;;;4906861;29;20035;-68
2022/07/20 06:54:25;;;;;;;10.25;5.03;;;25.40;65.50;;;;;;4920030;29;20040;-72
2022/07/20 06:56:51;;;;;;;10.15;5.32;;;25.50;65.50;;;;;;4928577;29;20027;-71
2022/07/20 06:59:17;;;;;;;8.00;5.03;;;25.60;65.30;;;;;;4927888;29;20060;-70
2022/07/20 07:01:43;;;;;;;9.07;5.25;;;25.70;65.00;;;;;;4928230;29;20067;-70
2022/07/20 07:04:09;;;;;;;12.63;5.65;;;25.90;65.20;;;;;;4943012;29;20048;-70
2022/07/20 07:06:35;;;;;;;13.35;6.50;;;25.90;64.70;;;;;;4926736;29;20129;-69
2022/07/20 07:09:02;;;;;;;15.80;5.88;;;26.00;64.80;;;;;;4927243;29;20047;-70
2022/07/20 07:11:28;;;;;;;10.98;6.10;;;26.10;64.90;;;;;;4945559;29;20046;-71
2022/07/20 07:13:53;;;;;;;14.18;6.70;;;26.30;64.40;;;;;;4945958;29;20027;-70
2022/07/20 07:16:19;;;;;;;15.43;7.22;;;26.50;63.80;;;;;;4945171;29;20099;-71
2022/07/20 07:18:45;;;;;;;15.63;6.78;;;26.60;63.70;;;;;;4946468;29;20044;-70
2022/07/20 07:21:11;;;;;;;12.40;6.20;;;26.80;63.80;;;;;;4946110;29;20043;-72
2022/07/20 07:23:37;;;;;;;12.18;6.28;;;27.00;63.10;;;;;;4928308;29;20067;-70
2022/07/20 07:26:03;;;;;;;11.70;6.20;;;27.10;62.90;;;;;;4926744;29;20032;-70
2022/07/20 07:28:30;;;;;;;11.20;6.15;;;27.30;62.50;;;;;;4925542;29;20069;-70
2022/07/20 07:30:56;;;;;;;12.07;6.15;;;27.40;62.50;;;;;;4926518;29;20226;-70
2022/07/20 07:33:25;;;;;;;12.52;6.03;;;27.50;62.10;;;;;;4926278;29;20033;-70
2022/07/20 07:35:55;;;;;;;15.35;5.63;;;27.60;62.10;;;;;;4926020;29;20040;-70
2022/07/20 07:38:21;;;;;;;11.10;6.00;;;27.80;61.70;;;;;;4926525;29;20028;-70
2022/07/20 07:40:47;;;;;;;12.38;5.90;;;27.90;61.60;;;;;;4925653;29;20040;-69
2022/07/20 07:43:13;;;;;;;10.15;5.13;;;28.10;61.40;;;;;;4926644;29;20028;-70
2022/07/20 07:45:39;;;;;;;12.38;5.78;;;28.20;61.30;;;;;;4925394;29;20048;-73
2022/07/20 07:48:09;;;;;;;9.25;5.57;;;28.20;61.10;;;;;;4934272;29;20047;-70
2022/07/20 07:50:37;;;;;;;8.20;5.82;;;28.30;61.40;;;;;;4944925;29;20197;-71
2022/07/20 07:53:03;;;;;;;15.27;6.85;;;28.40;60.70;;;;;;4945133;29;20285;-72
2022/07/20 07:55:29;;;;;;;11.05;5.93;;;28.60;60.60;;;;;;4945135;29;20058;-72
2022/07/20 07:57:54;;;;;;;10.70;5.82;;;28.70;60.10;;;;;;4942808;29;20020;-70
2022/07/20 08:00:20;;;;;;;15.43;6.45;;;28.90;60.00;;;;;;4925136;29;20140;-70
2022/07/20 08:02:46;;;;;;;9.90;5.78;;;29.00;59.90;;;;;;4942534;29;20294;-70
2022/07/20 08:05:12;;;;;;;11.50;6.10;;;29.20;59.60;;;;;;4934171;29;20043;-70
2022/07/20 08:07:40;;;;;;;13.18;5.60;;;29.30;59.30;;;;;;4925709;29;20036;-72
2022/07/20 08:10:07;;;;;;;10.93;5.90;;;29.40;59.40;;;;;;4934325;29;20155;-72
2022/07/20 08:12:34;;;;;;;10.18;5.70;;;29.40;59.20;;;;;;4944749;29;20723;-72
2022/07/20 08:15:04;;;;;;;10.77;6.45;;;29.60;59.30;;;;;;4909416;29;20040;-72
2022/07/20 08:17:30;;;;;;;9.15;5.30;;;29.60;59.10;;;;;;4925013;29;20075;-72
2022/07/20 08:19:56;;;;;;;46.83;16.52;;;29.70;59.10;;;;;;4925680;29;20203;-70
2022/07/20 08:22:21;;;;;;;14.55;7.40;;;29.80;59.60;;;;;;4925220;29;20091;-73
2022/07/20 08:24:47;;;;;;;12.75;5.40;;;29.90;59.30;;;;;;4926031;29;20041;-71
2022/07/20 08:27:16;;;;;;;19.17;6.97;;;30.10;59.20;;;;;;4925713;29;20063;-72
2022/07/20 08:29:42;;;;;;;16.40;6.15;;;30.20;58.80;;;;;;4925184;29;20058;-73
2022/07/20 08:32:10;;;;;;;12.70;5.38;;;30.30;58.60;;;;;;4924624;29;20245;-72
2022/07/20 08:34:36;;;;;;;12.85;4.97;;;30.30;58.80;;;;;;4925241;29;20048;-72
2022/07/20 08:37:02;;;;;;;12.30;5.68;;;30.50;58.60;;;;;;4925513;29;20051;-71
2022/07/20 08:39:27;;;;;;;11.13;5.15;;;30.60;58.40;;;;;;4924510;29;20306;-71
2022/07/20 08:41:56;;;;;;;13.20;5.18;;;30.80;58.10;;;;;;4925630;29;20342;-69
2022/07/20 08:44:22;;;;;;;11.25;5.55;;;30.80;58.10;;;;;;4924953;29;20095;-72
2022/07/20 08:46:48;;;;;;;9.98;5.22;;;30.90;57.70;;;;;;4924954;29;20274;-71
2022/07/20 08:49:14;;;;;;;9.10;5.70;;;31.00;57.70;;;;;;4941994;29;20071;-70
2022/07/20 08:51:40;;;;;;;10.68;5.45;;;31.20;57.80;;;;;;4943953;29;20040;-71
2022/07/20 08:54:06;;;;;;;9.35;5.18;;;31.30;57.50;;;;;;4927073;29;20086;-71
2022/07/20 08:56:32;;;;;;;14.68;5.50;;;31.50;57.20;;;;;;4943794;29;20246;-71
2022/07/20 08:58:58;;;;;;;14.57;5.30;;;31.60;57.00;;;;;;4944087;29;20368;-71
2022/07/20 09:01:24;;;;;;;8.88;5.00;;;31.70;56.90;;;;;;4943520;29;20182;-70
2022/07/20 09:04:09;;;;;;;8.88;5.00;;;31.80;56.60;;;;;;4944750;29;20052;-71
2022/07/20 09:06:43;;;;;;;9.20;5.30;;;31.90;56.50;;;;;;4943534;29;20054;-71
2022/07/20 09:09:09;;;;;;;8.63;5.00;;;32.00;56.50;;;;;;4942739;29;20035;-71
2022/07/20 09:11:35;;;;;;;9.55;5.22;;;32.10;56.20;;;;;;4924988;29;20186;-71
2022/07/20 09:14:01;;;;;;;14.20;5.55;;;32.30;55.90;;;;;;4924568;29;20039;-72
2022/07/20 09:16:43;;;;;;;22.05;5.70;;;32.50;55.80;;;;;;4924040;29;20111;-71
2022/07/20 09:19:10;;;;;;;11.15;5.13;;;32.60;55.60;;;;;;4925119;29;20036;-72
2022/07/20 09:21:35;;;;;;;11.68;5.15;;;32.70;54.50;;;;;;4914377;29;20020;-72
2022/07/20 09:24:06;;;;;;;10.20;5.30;;;32.70;53.50;;;;;;4905975;29;20370;-73
2022/07/20 09:26:32;;;;;;;9.43;4.90;;;32.80;53.10;;;;;;4905733;29;20033;-71
2022/07/20 09:29:01;;;;;;;8.98;4.82;;;32.70;53.00;;;;;;4905689;29;20044;-71
2022/07/20 09:31:31;;;;;;;;;;;32.80;52.50;;;;;;4905232;29;20060;-71
2022/07/20 09:34:14;;;;;;;9.27;5.07;;;32.80;52.90;;;;;;4925201;29;19907;-71
2022/07/20 09:36:41;;;;;;;9.93;4.95;;;32.90;52.60;;;;;;4925535;29;20035;-71
2022/07/20 09:39:14;;;;;;;9.40;5.40;;;33.00;52.80;;;;;;4925472;29;20314;-71
2022/07/20 09:41:44;;;;;;;9.20;5.35;;;33.10;51.80;;;;;;4924093;29;20039;-70
2022/07/20 09:44:24;;;;;;;20.30;5.63;;;33.10;51.90;;;;;;4925391;29;20035;-71
2022/07/20 09:46:50;;;;;;;12.98;6.05;;;33.20;52.50;;;;;;4925363;29;20238;-70
2022/07/20 09:49:16;;;;;;;11.80;5.93;;;33.30;51.90;;;;;;4937857;29;20020;-70
2022/07/20 09:51:47;;;;;;;19.35;5.75;;;33.50;52.00;;;;;;4925174;29;20258;-71
2022/07/20 09:54:16;;;;;;;11.20;5.47;;;33.60;52.10;;;;;;4925454;29;20058;-72
2022/07/20 09:56:48;;;;;;;11.98;5.10;;;33.70;52.00;;;;;;4925331;29;20108;-71
2022/07/20 09:59:14;;;;;;;11.13;5.10;;;33.80;51.20;;;;;;4929148;29;20039;-73
2022/07/20 10:01:46;;;;;;;9.68;4.60;;;34.00;51.10;;;;;;4926851;29;20036;-71
2022/07/20 10:04:13;;;;;;;7.45;4.32;;;34.10;48.40;;;;;;4929330;29;20032;-72
2022/07/20 10:06:42;;;;;;;8.35;4.13;;;34.20;47.80;;;;;;4929113;29;20318;-71
2022/07/20 10:09:09;;;;;;;9.98;4.50;;;34.30;48.10;;;;;;4928710;29;20349;-71
2022/07/20 10:11:35;;;;;;;10.13;4.45;;;34.50;48.10;;;;;;4928313;29;20057;-71
2022/07/20 10:14:03;;;;;;;10.02;4.43;;;34.40;48.30;;;;;;4912436;29;20035;-73
2022/07/20 10:16:32;;;;;;;7.97;4.18;;;34.40;48.70;;;;;;4928027;29;20048;-73
2022/07/20 10:18:58;;;;;;;8.40;3.95;;;34.50;48.30;;;;;;4929268;29;20036;-75
2022/07/20 10:21:43;;;;;;;7.00;3.88;;;34.60;48.60;;;;;;4929084;29;20044;-75
2022/07/20 10:24:34;;;;;;;8.43;3.50;;;34.70;48.40;;;;;;4929160;29;20111;-74
2022/07/20 10:27:02;;;;;;;7.55;3.53;;;34.80;47.90;;;;;;4928417;29;20039;-73
2022/07/20 10:29:33;;;;;;;7.85;3.80;;;35.00;47.50;;;;;;4927375;29;20046;-73
2022/07/20 10:32:08;;;;;;;5.15;3.80;;;34.90;48.20;;;;;;4927643;29;20219;-74
2022/07/20 10:34:38;;;;;;;8.25;3.83;;;34.90;48.00;;;;;;4927893;29;20124;-74
2022/07/20 10:37:26;;;;;;;8.05;4.40;;;35.00;48.50;;;;;;4927926;29;20111;-76
2022/07/20 10:40:11;;;;;;;;;;;34.90;47.80;;;;;;4928498;29;20036;-74
2022/07/20 10:42:41;;;;;;;9.20;4.00;;;35.00;47.80;;;;;;4927747;29;19907;-74
2022/07/20 10:45:19;;;;;;;7.55;3.97;;;35.10;48.10;;;;;;4927074;29;20040;-74
2022/07/20 10:47:49;;;;;;;;;;;35.20;47.60;;;;;;4929024;29;20306;-75
2022/07/20 10:50:35;;;;;;;6.45;3.70;;;35.20;48.10;;;;;;4930095;29;20195;-74
2022/07/20 10:53:12;;;;;;;9.32;4.05;;;35.40;47.70;;;;;;4946904;29;20063;-75
2022/07/20 10:55:38;;;;;;;10.05;4.93;;;35.50;47.80;;;;;;4935996;29;20055;-75
2022/07/20 10:58:12;;;;;;;6.90;4.60;;;35.50;48.30;;;;;;4928562;29;20028;-77
2022/07/20 11:00:39;;;;;;;7.70;4.22;;;35.50;47.90;;;;;;4925058;29;20040;-76
2022/07/20 11:03:18;;;;;;;8.15;4.35;;;35.70;48.10;;;;;;4909443;29;20044;-74
2022/07/20 11:05:46;;;;;;;7.22;4.15;;;35.70;48.20;;;;;;4925627;29;20239;-78
2022/07/20 11:08:13;;;;;;;7.72;4.40;;;35.80;48.20;;;;;;4927223;29;20056;-77
2022/07/20 11:10:40;;;;;;;6.25;4.10;;;35.90;47.70;;;;;;4924739;29;20028;-75
2022/07/20 11:13:09;;;;;;;8.57;4.22;;;36.00;47.40;;;;;;4934095;29;20199;-78
2022/07/20 11:15:39;;;;;;;7.35;3.83;;;36.10;47.40;;;;;;4929330;29;20040;-79
2022/07/20 11:18:10;;;;;;;6.43;3.97;;;36.30;47.20;;;;;;4928403;29;20098;-77
2022/07/20 11:20:44;;;;;;;5.47;4.20;;;36.50;46.90;;;;;;4927490;29;20068;-76
2022/07/20 11:23:10;;;;;;;6.15;4.30;;;36.50;46.60;;;;;;4927566;29;20092;-74
2022/07/20 11:25:57;;;;;;;5.85;4.07;;;36.60;46.20;;;;;;4926533;29;20381;-76
2022/07/20 11:28:29;;;;;;;5.15;4.60;;;36.60;46.50;;;;;;4927157;29;20040;-75
2022/07/20 11:30:56;;;;;;;10.00;4.15;;;36.80;46.30;;;;;;4925965;29;20051;-76
2022/07/20 11:33:31;;;;;;;5.90;4.20;;;37.00;46.00;;;;;;4910059;29;20083;-75
2022/07/20 11:36:06;;;;;;;8.38;4.38;;;37.30;46.30;;;;;;4926768;29;20436;-77
2022/07/20 11:38:37;;;;;;;6.90;4.40;;;37.60;46.30;;;;;;4926381;29;20047;-76
2022/07/20 11:41:04;;;;;;;7.57;4.00;;;38.00;45.90;;;;;;4927000;29;20055;-77
2022/07/20 11:43:31;;;;;;;9.15;4.65;;;38.20;45.90;;;;;;4926409;29;20099;-77
2022/07/20 11:46:15;;;;;;;6.60;4.05;;;38.40;44.90;;;;;;4930318;29;20044;-75
2022/07/20 11:48:42;;;;;;;7.22;4.22;;;38.90;45.30;;;;;;4932914;29;20028;-77
2022/07/20 11:51:09;;;;;;;4.88;3.50;;;39.50;44.30;;;;;;4944416;29;20031;-77
2022/07/20 11:53:40;;;;;;;6.93;3.77;;;39.90;44.10;;;;;;4928316;29;20040;-76
2022/07/20 11:56:17;;;;;;;7.50;3.47;;;40.80;43.50;;;;;;4945487;29;20035;-77
2022/07/20 11:58:44;;;;;;;;;;;42.30;42.60;;;;;;4946124;29;20031;-76
2022/07/20 12:01:13;;;;;;;9.55;3.70;;;42.60;42.30;;;;;;4944443;29;19962;-77
2022/07/20 12:03:41;;;;;;;7.13;3.97;;;43.70;42.20;;;;;;4944332;29;20070;-74
2022/07/20 12:06:12;;;;;;;7.57;3.60;;;44.20;41.20;;;;;;4945309;29;20035;-74
2022/07/20 12:08:39;;;;;;;4.10;3.53;;;44.90;41.00;;;;;;4944747;29;20043;-76
2022/07/20 12:11:07;;;;;;;6.07;3.50;;;45.30;40.60;;;;;;4927165;29;20051;-76
2022/07/20 12:13:50;;;;;;;4.63;3.13;;;45.90;39.80;;;;;;4925683;29;20040;-76
2022/07/20 12:16:17;;;;;;;6.88;3.40;;;46.10;40.20;;;;;;4923575;29;20048;-75
2022/07/20 12:18:45;;;;;;;4.43;3.33;;;46.50;39.40;;;;;;4921894;29;20046;-76
2022/07/20 12:21:15;;;;;;;9.73;4.20;;;47.30;39.70;;;;;;4926064;29;20040;-75
2022/07/20 12:23:43;;;;;;;5.82;3.28;;;47.60;39.80;;;;;;4908714;29;20023;-75
2022/07/20 12:26:21;;;;;;;6.72;3.50;;;47.30;39.00;;;;;;4906124;29;20020;-76
2022/07/20 12:28:47;;;;;;;6.95;3.58;;;47.80;38.90;;;;;;4923166;29;20036;-76
2022/07/20 12:31:20;;;;;;;4.53;3.20;;;47.80;39.00;;;;;;4905622;29;20044;-77
2022/07/20 12:34:07;;;;;;;6.80;4.00;;;48.40;39.00;;;;;;4922073;29;20028;-76
2022/07/20 12:36:43;;;;;;;7.75;3.58;;;48.60;38.40;;;;;;4925291;29;20039;-75
2022/07/20 12:39:13;;;;;;;5.47;3.67;;;49.10;38.50;;;;;;4925782;29;20318;-75
2022/07/20 12:41:40;;;;;;;6.05;3.70;;;49.40;39.10;;;;;;4889798;29;20044;-76
2022/07/20 12:44:26;;;;;;;6.75;3.72;;;50.20;38.20;;;;;;4918056;29;20035;-77
2022/07/20 12:46:53;;;;;;;5.30;3.90;;;50.60;37.90;;;;;;4924551;29;20036;-76
2022/07/20 12:49:21;;;;;;;5.47;4.03;;;51.20;37.70;;;;;;4938475;29;20105;-76
2022/07/20 12:51:48;;;;;;;4.45;3.50;;;51.50;37.60;;;;;;4943761;29;20040;-76
2022/07/20 12:54:14;;;;;;;5.80;4.32;;;51.50;37.80;;;;;;4944111;29;20044;-76
2022/07/20 12:56:40;;;;;;;6.60;4.90;;;51.30;37.60;;;;;;4944151;29;20191;-76
2022/07/20 12:59:06;;;;;;;7.50;5.27;;;50.20;38.30;;;;;;4944133;29;20039;-73
2022/07/20 13:01:32;;;;;;;8.83;6.60;;;49.70;38.90;;;;;;4943421;29;20109;-74
2022/07/20 13:03:57;;;;;;;9.40;6.53;;;49.10;39.20;;;;;;4944465;29;20034;-75
2022/07/20 13:06:23;;;;;;;9.40;6.40;;;47.00;40.30;;;;;;4944589;29;20065;-75
2022/07/20 13:08:49;;;;;;;8.20;6.90;;;44.80;41.60;;;;;;4944705;29;20332;-82
2022/07/20 13:11:14;;;;;;;14.20;7.57;;;42.80;43.00;;;;;;4911569;29;20095;-75
2022/07/20 13:13:40;;;;;;;14.10;9.25;;;41.80;44.50;;;;;;4923921;29;20040;-75
2022/07/20 13:16:06;;;;;;;13.32;8.30;;;40.80;45.50;;;;;;4924287;29;20048;-78
2022/07/20 13:18:32;;;;;;;12.70;9.02;;;39.90;46.40;;;;;;4926115;29;20028;-74
2022/07/20 13:20:57;;;;;;;14.77;9.82;;;38.90;47.50;;;;;;4925350;29;20020;-76
2022/07/20 13:23:23;;;;;;;14.27;9.48;;;38.20;48.60;;;;;;4922068;29;20036;-76
2022/07/20 13:25:49;;;;;;;14.50;10.57;;;37.30;49.40;;;;;;4923239;29;20336;-74
2022/07/20 13:28:24;;;;;;;14.25;9.93;;;36.50;51.20;;;;;;4926068;29;20380;-76
2022/07/20 13:30:51;;;;;;;15.05;11.13;;;35.80;52.60;;;;;;4890993;29;20068;-78
2022/07/20 13:33:35;;;;;;;14.63;10.55;;;35.20;53.60;;;;;;4924619;29;20044;-75
2022/07/20 13:36:01;;;;;;;14.20;10.68;;;34.70;54.30;;;;;;4925868;29;20051;-75
2022/07/20 13:38:30;;;;;;;14.32;10.95;;;34.30;55.00;;;;;;4925654;29;20047;-75
2022/07/20 13:40:56;;;;;;;20.33;11.63;;;34.10;55.80;;;;;;4925366;29;20111;-75
2022/07/20 13:43:25;;;;;;;16.50;11.52;;;33.70;56.70;;;;;;4925659;29;20247;-75
2022/07/20 13:45:50;;;;;;;13.95;11.13;;;33.60;57.00;;;;;;4905925;29;20040;-70
2022/07/20 13:48:17;;;;;;;18.90;12.23;;;33.50;59.70;;;;;;4925944;29;20039;-74
2022/07/20 13:50:43;;;;;;;15.38;11.82;;;33.00;60.70;;;;;;4924721;29;20083;-74
2022/07/20 13:53:10;;;;;;;19.17;12.40;;;32.50;64.90;;;;;;4925885;29;20048;-72
2022/07/20 13:55:36;;;;;;;24.30;13.20;;;32.30;65.90;;;;;;4921316;29;20032;-74
2022/07/20 13:58:04;;;;;;;15.80;11.98;;;32.10;66.00;;;;;;4924212;29;20086;-72
2022/07/20 14:00:30;;;;;;;13.85;11.00;;;32.40;66.50;;;;;;4924786;29;20040;-72
2022/07/20 14:02:56;;;;;;;19.70;12.82;;;32.70;65.50;;;;;;4924143;29;20107;-72
2022/07/20 14:05:23;;;;;;;16.98;11.65;;;33.20;64.70;;;;;;4925447;29;20314;-72
2022/07/20 14:07:49;;;;;;;16.20;12.23;;;33.50;63.90;;;;;;4925043;29;20310;-73
2022/07/20 14:10:15;;;;;;;16.65;12.70;;;33.30;62.80;;;;;;4930374;29;20107;-72
2022/07/20 14:12:40;;;;;;;19.83;12.88;;;33.30;63.50;;;;;;4944327;29;20325;-73
2022/07/20 14:15:08;;;;;;;16.23;12.25;;;32.90;64.60;;;;;;4943862;29;20031;-72
2022/07/20 14:17:37;;;;;;;16.33;12.40;;;32.70;65.20;;;;;;4944667;29;20039;-72
2022/07/20 14:20:04;;;;;;;18.80;13.00;;;32.70;65.20;;;;;;4944719;29;20040;-72
2022/07/20 14:22:30;;;;;;;15.32;12.57;;;32.80;64.20;;;;;;4944484;29;20039;-73
2022/07/20 14:24:56;;;;;;;14.10;12.40;;;32.80;64.00;;;;;;4944323;29;20202;-74
2022/07/20 14:27:22;;;;;;;16.65;11.63;;;33.50;62.50;;;;;;4944169;29;20381;-72
2022/07/20 14:29:47;;;;;;;16.52;12.00;;;34.60;60.80;;;;;;4938441;29;20129;-71
2022/07/20 14:32:13;;;;;;;15.88;12.35;;;35.30;59.30;;;;;;4924932;29;20044;-71
2022/07/20 14:34:39;;;;;;;15.35;11.55;;;35.50;58.70;;;;;;4924408;29;20044;-71
2022/07/20 14:37:05;;;;;;;17.00;11.38;;;36.20;57.60;;;;;;4924266;29;20091;-72
2022/07/20 14:39:31;;;;;;;13.52;11.60;;;37.70;55.80;;;;;;4925271;29;20103;-73
2022/07/20 14:41:59;;;;;;;13.23;10.48;;;39.70;53.10;;;;;;4924600;29;20227;-71
2022/07/20 14:44:25;;;;;;;16.58;10.85;;;39.60;51.80;;;;;;4927960;29;20039;-71
2022/07/20 14:46:52;;;;;;;14.35;11.38;;;38.70;52.40;;;;;;4927986;29;20044;-70
2022/07/20 14:49:18;;;;;;;14.80;11.35;;;37.60;53.90;;;;;;4929069;29;20047;-71
2022/07/20 14:51:43;;;;;;;15.68;11.18;;;37.10;54.50;;;;;;4927333;29;20028;-71
2022/07/20 14:54:09;;;;;;;15.95;11.32;;;36.40;55.00;;;;;;4928412;29;20063;-72
2022/07/20 14:56:36;;;;;;;12.52;11.18;;;35.90;56.70;;;;;;4928904;29;20091;-71
2022/07/20 14:59:05;;;;;;;17.63;12.32;;;35.60;57.20;;;;;;4928400;29;20222;-71
2022/07/20 15:01:32;;;;;;;17.52;11.48;;;35.50;57.60;;;;;;4927921;29;20047;-71
2022/07/20 15:04:01;;;;;;;13.40;11.50;;;35.30;57.80;;;;;;4928157;29;20040;-71
2022/07/20 15:06:28;;;;;;;15.43;11.02;;;35.30;56.50;;;;;;4928773;29;20042;-72
2022/07/20 15:08:55;;;;;;;15.30;11.45;;;35.00;56.80;;;;;;4927824;29;20310;-71
2022/07/20 15:11:22;;;;;;;17.30;10.95;;;35.20;56.90;;;;;;4923119;29;20104;-71
2022/07/20 15:13:47;;;;;;;15.23;11.57;;;35.20;57.10;;;;;;4927569;29;20059;-71
2022/07/20 15:16:14;;;;;;;17.10;11.18;;;35.40;56.60;;;;;;4918280;29;20338;-71
2022/07/20 15:18:39;;;;;;;16.58;11.57;;;35.60;56.60;;;;;;4909389;29;20211;-71
2022/07/20 15:21:05;;;;;;;16.10;10.80;;;35.90;56.20;;;;;;4918036;29;20079;-71
2022/07/20 15:23:31;;;;;;;14.02;11.00;;;36.40;55.50;;;;;;4927231;29;20059;-72
2022/07/20 15:25:58;;;;;;;16.85;11.45;;;36.90;54.90;;;;;;4926687;29;20072;-71
2022/07/20 15:28:23;;;;;;;12.18;10.77;;;36.90;53.60;;;;;;4927313;29;20207;-71
2022/07/20 15:30:49;;;;;;;13.60;10.00;;;37.20;53.20;;;;;;4921416;29;20041;-71
2022/07/20 15:33:15;;;;;;;12.02;10.75;;;37.40;52.90;;;;;;4927545;29;20042;-71
2022/07/20 15:35:41;;;;;;;14.90;11.15;;;37.50;52.60;;;;;;4928359;29;20217;-72
2022/07/20 15:38:07;;;;;;;14.95;11.35;;;37.20;53.10;;;;;;4921518;29;20310;-73
2022/07/20 15:40:34;;;;;;;16.13;11.02;;;37.40;53.10;;;;;;4924643;29;20039;-73
2022/07/20 15:43:00;;;;;;;16.98;10.80;;;37.80;52.30;;;;;;4908657;29;20070;-72
2022/07/20 15:45:27;;;;;;;13.30;10.15;;;37.80;52.10;;;;;;4908397;29;20044;-72
2022/07/20 15:47:56;;;;;;;14.63;11.73;;;38.50;51.70;;;;;;4908435;29;20036;-72
2022/07/20 15:50:22;;;;;;;14.02;9.88;;;39.50;50.20;;;;;;4895035;29;20119;-70
2022/07/20 15:52:49;;;;;;;15.90;11.05;;;39.60;50.40;;;;;;4917444;29;20084;-71
2022/07/20 15:55:14;;;;;;;11.52;9.60;;;39.70;49.70;;;;;;4926789;29;20028;-71
2022/07/20 15:57:40;;;;;;;13.35;10.55;;;39.20;50.30;;;;;;4927943;29;20226;-73
2022/07/20 16:00:09;;;;;;;12.80;10.25;;;38.90;50.50;;;;;;4926536;29;20032;-72
2022/07/20 16:02:37;;;;;;;13.80;9.90;;;38.40;50.40;;;;;;4927313;29;20314;-72
2022/07/20 16:05:05;;;;;;;13.18;9.38;;;37.80;50.60;;;;;;4925870;29;20032;-72
2022/07/20 16:07:31;;;;;;;13.13;10.80;;;37.50;50.60;;;;;;4923440;29;20048;-72
2022/07/20 16:09:57;;;;;;;12.45;9.82;;;37.90;50.60;;;;;;4925999;29;20092;-71
2022/07/20 16:12:24;;;;;;;15.98;10.30;;;37.90;50.90;;;;;;4927430;29;20040;-71
2022/07/20 16:14:50;;;;;;;13.93;10.32;;;37.70;51.20;;;;;;4927513;29;20060;-72
2022/07/20 16:17:17;;;;;;;12.25;10.50;;;37.70;51.40;;;;;;4926216;29;20040;-76
2022/07/20 16:19:42;;;;;;;14.40;10.70;;;37.30;51.80;;;;;;4926308;29;20099;-73
2022/07/20 16:22:09;;;;;;;16.77;10.77;;;36.90;52.40;;;;;;4927104;29;20312;-74
2022/07/20 16:24:36;;;;;;;14.07;10.48;;;36.30;53.00;;;;;;4926962;29;20043;-73
2022/07/20 16:27:02;;;;;;;14.70;10.80;;;35.90;53.70;;;;;;4926880;29;20068;-73
2022/07/20 16:29:28;;;;;;;16.45;10.40;;;35.30;54.30;;;;;;4927261;29;20105;-73
2022/07/20 16:31:54;;;;;;;11.77;10.52;;;35.10;54.60;;;;;;4918632;29;20044;-72
2022/07/20 16:34:21;;;;;;;12.30;10.68;;;34.80;55.20;;;;;;4908375;29;20032;-73
2022/07/20 16:36:47;;;;;;;13.45;10.77;;;34.60;55.70;;;;;;4896914;29;20032;-72
2022/07/20 16:39:13;;;;;;;19.35;10.85;;;34.40;56.20;;;;;;4934335;29;20036;-73
2022/07/20 16:41:43;;;;;;;12.48;10.55;;;34.30;56.40;;;;;;4926170;29;20036;-73
2022/07/20 16:44:08;;;;;;;13.32;10.43;;;34.20;56.70;;;;;;4923126;29;20108;-72
2022/07/20 16:46:36;;;;;;;17.75;11.35;;;34.10;56.90;;;;;;4922025;29;20051;-74
2022/07/20 16:49:03;;;;;;;15.88;11.52;;;34.10;57.00;;;;;;4926000;29;20087;-73
2022/07/20 16:51:29;;;;;;;14.63;11.13;;;34.10;57.10;;;;;;4925396;29;20040;-74
2022/07/20 16:53:54;;;;;;;16.80;11.68;;;34.10;57.20;;;;;;4925871;29;20043;-74
2022/07/20 16:56:20;;;;;;;15.32;11.23;;;34.10;57.80;;;;;;4926571;29;20032;-75
2022/07/20 16:58:46;;;;;;;16.02;11.60;;;34.10;57.40;;;;;;4926454;29;20043;-71
2022/07/20 17:01:12;;;;;;;14.38;10.85;;;34.10;57.50;;;;;;4922227;29;20063;-70
2022/07/20 17:03:38;;;;;;;16.80;12.07;;;34.00;57.50;;;;;;4925873;29;20047;-72
2022/07/20 17:06:05;;;;;;;15.07;11.18;;;33.80;57.70;;;;;;4925549;29;20095;-71
2022/07/20 17:08:31;;;;;;;13.65;11.98;;;33.60;58.30;;;;;;4926417;29;20070;-70
2022/07/20 17:10:57;;;;;;;16.08;11.40;;;33.30;58.50;;;;;;4925682;29;20310;-70
2022/07/20 17:13:23;;;;;;;13.48;10.98;;;33.10;58.70;;;;;;4926465;29;20032;-70
2022/07/20 17:15:49;;;;;;;12.75;10.77;;;33.00;58.80;;;;;;4925350;29;20318;-72
2022/07/20 17:18:14;;;;;;;13.05;11.02;;;32.80;59.00;;;;;;4926431;29;20199;-73
2022/07/20 17:20:40;;;;;;;16.98;12.05;;;32.70;61.30;;;;;;4926158;29;20040;-72
2022/07/20 17:23:06;;;;;;;21.13;12.20;;;32.60;64.40;;;;;;4925380;29;20056;-73
2022/07/20 17:25:32;;;;;;;16.33;11.77;;;32.20;66.60;;;;;;4926246;29;20040;-72
2022/07/20 17:27:58;;;;;;;21.83;14.20;;;31.50;70.20;;;;;;4908998;29;20043;-72
2022/07/20 17:30:24;;;;;;;19.60;13.38;;;30.60;75.50;;;;;;4926097;29;20040;-71
2022/07/20 17:32:50;;;;;;;18.67;12.98;;;30.00;76.90;;;;;;4925568;29;20060;-74
2022/07/20 17:35:16;;;;;;;20.70;13.02;;;29.70;77.50;;;;;;4925224;29;20052;-73
2022/07/20 17:37:44;;;;;;;19.10;12.88;;;29.40;76.60;;;;;;4919916;29;20059;-76
2022/07/20 17:40:12;;;;;;;19.40;13.40;;;29.30;76.90;;;;;;4925461;29;20071;-71
2022/07/20 17:42:38;;;;;;;16.17;13.68;;;29.00;77.30;;;;;;4926020;29;20048;-70